Greenville, IA

8:49 PM CDT on July 29, 2014 (GMT -0500)
Webb, Iowa (KIAWEBB1) Elev 1356 ft | 42.95 °N, 95.01 °W | Change Station

Current weather conditions updated 9 minutes ago

Clear
Clear
68.2 °F
Feels Like 68.2 °F
N
0.0
Wind Variable Wind from SE
Gusts 0.0 mph

Tomorrow is forecast to be Warmer than today.

Today
High -- | Low -- °F
--% Chance of Precip.
Yesterday
High -- | Low -- °F
Precip. -- in
6:07 AM 8:44 PM
Waxing Crescent, 9% visible
Pressure 30.11 in
Visibility 10.0 miles
Clouds Clear
Dew Point 60 °F
Humidity 74%
Rainfall 0.00 in
Snow Depth Not available.
UV 0 out of 12
Pollen 5.50 out of 12
Air Quality Not available.
Flu Activity Not available.
METAR KSPW 300053Z AUTO 31004KT 10SM CLR 19/15 A3011 RMK AO2 SLP195 T01940150

More Conditions Fewer Conditions

Pressure 30.11 in
Visibility 10.0 miles
Clouds Clear
Dew Point 60 °F
Humidity 74%
Rainfall 0.00 in
Snow Depth Not available.
UV 0 out of 12
Pollen 5.50 out of 12
Air Quality Not available.
Flu Activity Not available.
METAR KSPW 300053Z AUTO 31004KT 10SM CLR 19/15 A3011 RMK AO2 SLP195 T01940150

More Conditions Fewer Conditions

10-Day Weather Forecast

Almanac

Astronomy

Jul. 29, 2014 Rise Set
Actual Time 6:07 AM CDT 8:44 PM CDT
Civil Twilight 5:35 AM CDT 9:17 PM CDT
Nautical Twilight 4:54 AM CDT 9:57 PM CDT
Astronomical Twilight 4:07 AM CDT 10:44 PM CDT
Moon 8:50 AM CDT (7/29) 9:51 PM CDT (7/29)
Length of Visible Light 15h 42m
Length of Day
14h 36m
Tomorrow will be 2m 9s shorter.
Waxing Crescent, 9% of the Moon is Illuminated
Today
Waxing Crescent
Aug 3
First Quarter
Aug 10
Full
Aug 17
Last Quarter
Aug 25
New

Today's Extremes

State Highs State Lows

Community

WunderPhotos

Upload Photos

1,738,947 photos uploaded!

Nearby

Snow Depth

Station Depth Elevation
No new snow has been reported.

Earthquake Activity

City Distance Mag. Time & Date
No recent earthquake activity has been reported nearby.
Minimum magnitude displayed is 2.5.

Coastal Water Temperatures

Place Temperature
No Stations Reporting

Nearby Weather Stations

Station Location Temp. Dew Point Humidity Wind Precip. Elev Updated Type
Webb, Iowa, Webb, IA 68.2 °F 60 °F 74% SE  at  0.0 mph 0.00 in / hr 1356 ft 8:40 PM CDT Normal
Lost Island Lake, Ruthven, IA 63.1 °F 59 °F 87% West  at  0.0 mph 0.00 in / hr 1380 ft 8:47 PM CDT Normal
Mallard, Mallard, IA 69.4 °F 58 °F 67% WSW  at  2.0 mph 0.00 in / hr 1224 ft 8:39 PM CDT Normal
Mulberry Grove Family Farm, Milford, IA 67.0 °F 60 °F 77% WNW  at  1.0 mph 0.00 in / hr 1453 ft 8:49 PM CDT Rapid Fire
Milford Fire Station, Milford, IA 67.2 °F 58 °F 71% NW  at  2.0 mph 0.00 in / hr 1443 ft 8:49 PM CDT Rapid Fire
West Sioux Estates 10, Milford, IA 67.1 °F 57 °F 70% WNW  at  1.0 mph 0.00 in / hr 1420 ft 8:46 PM CDT Normal
Northwest Communications, Havelock, IA 67.0 °F 58 °F 72% NW  at  0.0 mph 0.00 in / hr 1220 ft 8:49 PM CDT Rapid Fire
Plover Pit, Plover, IA 66.8 °F 59 °F 76% WSW  at  0.0 mph 0.00 in / hr 1190 ft 8:45 PM CDT Normal

Show More Stations Show Fewer Stations